Time;durP1;ratioP1;P1;durP2;ratioP2;P2;SDS_P1;SDS_P2;PMS_P1;PMS_P2;Temp;Humidity;BMP_temperature;BMP_pressure;BME280_temperature;BME280_humidity;BME280_pressure;Samples;Min_cycle;Max_cycle;Signal;HPM_P1;HPM_P2
2022/12/07 00:00:49;;;;;;;20.23;6.43;;;11.50;99.90;;;;;;5032819;28;20053;-72
2022/12/07 00:04:00;;;;;;;23.30;10.32;;;11.40;99.90;;;;;;5032519;28;20400;-72
2022/12/07 00:07:04;;;;;;;23.30;9.25;;;11.30;99.90;;;;;;5032453;28;20109;-72
2022/12/07 00:10:08;;;;;;;17.00;7.55;;;11.20;99.90;;;;;;5032315;28;20052;-72
2022/12/07 00:13:13;;;;;;;19.75;6.40;;;11.20;99.90;;;;;;5031260;28;20052;-72
2022/12/07 00:16:19;;;;;;;25.25;11.35;;;11.20;99.90;;;;;;5032494;28;20072;-72
2022/12/07 00:19:23;;;;;;;18.52;8.88;;;11.20;99.90;;;;;;5032309;28;20048;-72
2022/12/07 00:22:27;;;;;;;25.10;10.05;;;11.20;99.90;;;;;;5032444;28;20064;-73
2022/12/07 00:25:31;;;;;;;28.42;11.88;;;11.20;99.90;;;;;;5031758;28;20052;-72
2022/12/07 00:28:35;;;;;;;23.20;11.10;;;11.30;99.90;;;;;;5032330;28;20068;-72
2022/12/07 00:31:40;;;;;;;26.80;9.73;;;11.20;99.90;;;;;;5032393;28;20068;-72
2022/12/07 00:34:43;;;;;;;18.38;8.23;;;11.30;99.90;;;;;;5031356;28;20044;-72
2022/12/07 00:37:47;;;;;;;19.13;7.65;;;11.20;99.90;;;;;;5032032;28;20045;-72
2022/12/07 00:41:06;;;;;;;15.75;6.80;;;11.20;99.90;;;;;;5032192;28;20048;-72
2022/12/07 00:44:10;;;;;;;20.88;6.70;;;11.30;99.90;;;;;;5031947;28;20048;-72
2022/12/07 00:47:14;;;;;;;17.13;6.30;;;11.20;99.90;;;;;;5032320;28;20406;-72
2022/12/07 00:50:18;;;;;;;19.05;5.47;;;11.20;99.90;;;;;;5032302;28;20511;-72
2022/12/07 00:53:22;;;;;;;18.80;5.03;;;11.20;99.90;;;;;;5031822;28;20056;-72
2022/12/07 00:56:30;;;;;;;16.92;4.32;;;11.30;99.90;;;;;;5042506;28;20056;-72
2022/12/07 00:59:34;;;;;;;32.30;7.13;;;11.30;99.90;;;;;;5031468;28;20113;-72
2022/12/07 01:02:38;;;;;;;19.65;5.80;;;11.30;99.90;;;;;;5032499;28;20061;-72
2022/12/07 01:05:56;;;;;;;18.48;4.68;;;11.30;99.90;;;;;;5031730;28;20036;-72
2022/12/07 01:09:00;;;;;;;13.95;4.95;;;11.30;99.90;;;;;;5031964;28;20036;-72
2022/12/07 01:12:05;;;;;;;20.85;5.63;;;11.40;99.90;;;;;;5031395;28;20052;-72
2022/12/07 01:15:09;;;;;;;174.93;16.95;;;11.40;99.90;;;;;;5031420;28;20048;-72
2022/12/07 01:18:13;;;;;;;25.75;10.23;;;11.10;99.90;;;;;;5031315;28;20052;-72
2022/12/07 01:21:23;;;;;;;23.50;9.23;;;11.00;99.90;;;;;;5031410;28;20045;-72
2022/12/07 01:24:27;;;;;;;24.05;8.77;;;11.00;99.90;;;;;;5030161;28;20044;-72
2022/12/07 01:27:31;;;;;;;17.38;7.75;;;11.00;99.90;;;;;;5031536;28;20052;-72
2022/12/07 01:30:36;;;;;;;22.05;12.45;;;11.00;99.90;;;;;;5031566;28;20048;-72
2022/12/07 01:33:41;;;;;;;27.92;12.48;;;11.00;99.90;;;;;;5030926;28;20603;-72
2022/12/07 01:36:44;;;;;;;31.38;14.90;;;10.90;99.90;;;;;;5030940;28;20049;-72
2022/12/07 01:39:49;;;;;;;33.22;16.98;;;10.80;99.90;;;;;;5031136;28;20060;-72
2022/12/07 01:42:53;;;;;;;67.38;21.35;;;10.60;99.90;;;;;;5031090;28;20509;-72
2022/12/07 01:45:59;;;;;;;36.05;19.10;;;10.60;99.90;;;;;;5031044;28;20044;-72
2022/12/07 01:49:20;;;;;;;49.47;21.77;;;10.60;99.90;;;;;;5030032;28;20048;-72
2022/12/07 01:52:33;;;;;;;36.58;19.42;;;10.70;99.90;;;;;;5031130;28;20045;-73
2022/12/07 01:55:40;;;;;;;38.47;20.88;;;10.70;99.90;;;;;;5030553;28;20056;-72
2022/12/07 01:58:45;;;;;;;45.90;20.55;;;10.70;99.90;;;;;;5030813;28;20392;-72
2022/12/07 02:01:50;;;;;;;35.60;20.30;;;10.70;99.90;;;;;;5030828;28;20040;-72
2022/12/07 02:04:55;;;;;;;33.92;19.10;;;10.60;99.90;;;;;;5030463;28;20369;-72
2022/12/07 02:08:01;;;;;;;32.78;14.65;;;10.70;99.90;;;;;;5030652;28;20040;-72
2022/12/07 02:11:08;;;;;;;24.52;12.98;;;10.70;99.90;;;;;;5030968;28;20065;-72
2022/12/07 02:14:12;;;;;;;26.65;14.90;;;10.70;99.90;;;;;;5030007;28;20052;-72
2022/12/07 02:17:28;;;;;;;549.13;49.03;;;10.80;99.90;;;;;;5030547;28;20037;-73
2022/12/07 02:20:43;;;;;;;33.38;21.15;;;10.60;99.90;;;;;;5030415;28;20049;-74
2022/12/07 02:24:09;;;;;;;84.93;23.85;;;10.40;99.90;;;;;;5028521;28;20052;-74
2022/12/07 02:27:48;;;;;;;32.30;20.40;;;10.50;99.90;;;;;;5031513;28;20044;-73
2022/12/07 02:30:54;;;;;;;33.80;18.38;;;10.60;99.90;;;;;;5030975;28;20056;-74
2022/12/07 02:34:05;;;;;;;29.33;16.95;;;10.60;99.90;;;;;;5029632;28;20392;-74
2022/12/07 02:37:42;;;;;;;37.28;17.13;;;10.70;99.90;;;;;;5029594;28;20049;-73
2022/12/07 02:40:54;;;;;;;27.45;12.77;;;10.80;99.90;;;;;;5030563;28;20044;-74
2022/12/07 02:44:14;;;;;;;27.70;13.32;;;10.90;99.90;;;;;;5029311;28;20041;-73
2022/12/07 02:47:21;;;;;;;70.63;22.45;;;11.00;99.90;;;;;;5030388;28;20492;-73
2022/12/07 02:50:25;;;;;;;1272.35;88.30;;;10.80;99.90;;;;;;5030541;28;20570;-73
2022/12/07 02:53:36;;;;;;;1018.10;80.93;;;10.40;99.90;;;;;;5028825;28;20484;-73
2022/12/07 02:56:44;;;;;;;274.17;42.30;;;10.30;99.90;;;;;;5030287;28;20037;-74
2022/12/07 02:59:50;;;;;;;384.45;41.67;;;10.20;99.90;;;;;;5030202;28;20390;-73
2022/12/07 03:02:59;;;;;;;104.75;33.88;;;10.30;99.90;;;;;;5030236;28;20048;-73
2022/12/07 03:06:18;;;;;;;177.48;33.33;;;10.30;99.90;;;;;;5030314;28;20048;-73
2022/12/07 03:09:50;;;;;;;117.47;33.03;;;10.30;99.90;;;;;;5030177;28;20040;-73
2022/12/07 03:13:09;;;;;;;48.78;29.10;;;10.40;99.90;;;;;;5030287;28;20048;-73
2022/12/07 03:16:32;;;;;;;51.42;27.80;;;10.40;99.90;;;;;;5029848;28;20400;-73
2022/12/07 03:19:37;;;;;;;47.08;28.85;;;10.40;99.90;;;;;;5029833;28;20045;-74
2022/12/07 03:22:43;;;;;;;240.23;33.42;;;10.30;99.90;;;;;;5029926;28;20056;-73
2022/12/07 03:25:52;;;;;;;97.30;30.45;;;10.40;99.90;;;;;;5029465;28;20215;-73
2022/12/07 03:29:00;;;;;;;251.82;37.65;;;10.40;99.90;;;;;;5029942;28;20380;-74
2022/12/07 03:32:14;;;;;;;37.83;24.85;;;10.40;99.90;;;;;;5030691;28;20044;-73
2022/12/07 03:35:33;;;;;;;62.50;28.15;;;10.40;99.90;;;;;;5029580;28;20060;-73
2022/12/07 03:38:52;;;;;;;62.50;28.65;;;10.50;99.90;;;;;;5028491;28;20543;-73
2022/12/07 03:41:59;;;;;;;375.77;44.83;;;10.60;99.90;;;;;;5029767;28;20040;-74
2022/12/07 03:45:05;;;;;;;230.98;35.33;;;10.50;99.90;;;;;;5028516;28;20057;-73
2022/12/07 03:48:32;;;;;;;324.17;40.80;;;10.30;99.90;;;;;;5031340;28;20044;-74
2022/12/07 03:52:23;;;;;;;159.95;32.90;;;10.30;99.90;;;;;;5021357;28;20056;-74
2022/12/07 03:55:35;;;;;;;1097.47;78.30;;;10.30;99.90;;;;;;5033227;28;20045;-73
2022/12/07 03:58:39;;;;;;;894.45;72.25;;;10.20;99.90;;;;;;5032307;28;20391;-73
2022/12/07 04:01:52;;;;;;;1539.25;116.18;;;10.10;99.90;;;;;;5033028;28;20045;-72
2022/12/07 04:04:57;;;;;;;64.72;26.17;;;9.90;99.90;;;;;;5032888;28;20392;-75
2022/12/07 04:22:16;;;;;;;31.65;20.55;;;10.20;99.90;;;;;;5033727;28;20103;-73
2022/12/07 04:25:20;;;;;;;23.80;15.57;;;10.10;99.90;;;;;;5032249;28;20416;-73
2022/12/07 04:28:24;;;;;;;20.83;13.20;;;10.10;99.90;;;;;;5032637;28;20040;-73
2022/12/07 04:31:28;;;;;;;15.35;9.88;;;10.10;99.90;;;;;;5032768;28;20048;-73
2022/12/07 04:34:32;;;;;;;18.10;9.80;;;10.10;99.90;;;;;;5032148;28;20053;-73
2022/12/07 04:37:38;;;;;;;24.50;9.90;;;10.20;99.90;;;;;;5031444;28;20400;-73
2022/12/07 04:40:43;;;;;;;22.08;8.65;;;10.30;99.90;;;;;;5032269;28;20045;-73
2022/12/07 04:43:47;;;;;;;30.00;8.70;;;10.40;99.90;;;;;;5031785;28;20040;-73
2022/12/07 04:46:52;;;;;;;17.33;6.65;;;10.50;99.90;;;;;;5031577;28;20044;-73
2022/12/07 04:49:55;;;;;;;21.98;7.43;;;10.60;99.90;;;;;;5032075;28;20487;-73
2022/12/07 04:52:59;;;;;;;19.67;6.85;;;10.60;99.90;;;;;;5032380;28;20056;-73
2022/12/07 04:56:03;;;;;;;14.55;6.35;;;10.60;99.90;;;;;;5042601;28;20044;-73
2022/12/07 04:59:10;;;;;;;127.82;13.85;;;10.70;99.90;;;;;;5031696;28;20507;-73
2022/12/07 05:02:15;;;;;;;83.60;12.45;;;10.50;99.90;;;;;;5031592;28;20045;-73
2022/12/07 05:05:19;;;;;;;59.13;13.50;;;10.40;99.90;;;;;;5030740;28;20052;-73
2022/12/07 05:08:22;;;;;;;621.88;49.55;;;10.40;99.90;;;;;;5031786;28;20374;-73
2022/12/07 05:11:39;;;;;;;782.00;60.75;;;10.30;99.90;;;;;;5031085;28;20064;-73
2022/12/07 05:14:43;;;;;;;339.02;41.15;;;10.20;99.90;;;;;;5030157;28;20048;-74
2022/12/07 05:17:47;;;;;;;66.35;22.33;;;10.20;99.90;;;;;;5031977;28;20049;-73
2022/12/07 05:20:51;;;;;;;57.50;21.38;;;10.20;99.90;;;;;;5042223;28;20512;-73
2022/12/07 05:23:56;;;;;;;1236.10;89.47;;;10.20;99.90;;;;;;5031342;28;20048;-73
2022/12/07 05:27:00;;;;;;;48.67;24.05;;;10.10;99.90;;;;;;5031704;28;20400;-72
2022/12/07 05:30:05;;;;;;;354.10;42.90;;;10.10;99.90;;;;;;5031479;28;20068;-73
2022/12/07 05:33:09;;;;;;;178.27;30.80;;;10.10;99.90;;;;;;5031533;28;20064;-73
2022/12/07 05:36:13;;;;;;;79.00;26.73;;;10.20;99.90;;;;;;5030772;28;20044;-74
2022/12/07 05:39:17;;;;;;;155.05;31.70;;;10.20;99.90;;;;;;5031454;28;20055;-73
2022/12/07 05:42:22;;;;;;;39.42;24.58;;;10.20;99.90;;;;;;5031230;28;20048;-73
2022/12/07 05:45:26;;;;;;;113.50;28.30;;;10.30;99.90;;;;;;5031074;28;20060;-74
2022/12/07 05:48:30;;;;;;;200.18;31.65;;;10.30;99.90;;;;;;5031112;28;20439;-74
2022/12/07 05:51:34;;;;;;;59.95;23.73;;;10.30;99.90;;;;;;5031283;28;20538;-73
2022/12/07 05:54:38;;;;;;;59.53;24.75;;;10.40;99.90;;;;;;5030722;28;20388;-74
2022/12/07 05:59:22;;;;;;;40.42;24.33;;;10.40;99.90;;;;;;5031357;28;20052;-73
2022/12/07 06:01:06;;;;;;;82.18;23.67;;;10.40;99.90;;;;;;5030387;28;20044;-74
2022/12/07 06:04:11;;;;;;;32.00;20.27;;;10.40;99.90;;;;;;5029952;28;20040;-73
2022/12/07 06:07:16;;;;;;;33.42;20.85;;;10.30;99.90;;;;;;5030937;28;20044;-74
2022/12/07 06:10:20;;;;;;;27.35;19.20;;;10.40;99.90;;;;;;5030514;28;20060;-73
2022/12/07 06:13:24;;;;;;;30.75;18.52;;;10.30;99.90;;;;;;5030439;28;20049;-74
2022/12/07 06:16:28;;;;;;;27.77;17.38;;;10.30;99.90;;;;;;5030870;28;20056;-74
2022/12/07 06:19:32;;;;;;;23.17;15.23;;;10.30;99.90;;;;;;5031670;28;20499;-73
2022/12/07 06:22:36;;;;;;;36.47;17.17;;;10.30;99.90;;;;;;5031426;28;20048;-73
2022/12/07 06:25:45;;;;;;;33.97;17.50;;;10.30;99.90;;;;;;5030599;28;20044;-73
2022/12/07 06:28:49;;;;;;;27.13;17.20;;;10.30;99.90;;;;;;5031729;28;20036;-73
2022/12/07 06:31:53;;;;;;;33.20;19.92;;;10.20;99.90;;;;;;5031670;28;20067;-72
2022/12/07 06:34:58;;;;;;;151.80;25.48;;;10.10;99.90;;;;;;5029904;28;20052;-73
2022/12/07 06:38:02;;;;;;;66.25;20.77;;;10.10;99.90;;;;;;5030512;28;20515;-73
2022/12/07 06:41:06;;;;;;;282.75;39.30;;;10.00;99.90;;;;;;5030827;28;20044;-73
2022/12/07 06:44:10;;;;;;;54.17;21.63;;;10.00;99.90;;;;;;5030271;28;20052;-73
2022/12/07 06:47:14;;;;;;;32.88;19.02;;;10.00;99.90;;;;;;5030536;28;20112;-73
2022/12/07 06:50:18;;;;;;;65.85;24.20;;;10.00;99.90;;;;;;5029803;28;20052;-73
2022/12/07 06:53:23;;;;;;;55.40;21.02;;;10.00;99.90;;;;;;5029211;28;20538;-73
2022/12/07 06:56:28;;;;;;;27.80;18.63;;;9.90;99.90;;;;;;5029882;28;20044;-73
2022/12/07 06:59:32;;;;;;;161.45;27.73;;;9.90;99.90;;;;;;5030311;28;20507;-73
2022/12/07 07:02:36;;;;;;;68.95;22.05;;;9.90;99.90;;;;;;5030101;28;20040;-73
2022/12/07 07:05:42;;;;;;;33.80;21.10;;;10.00;99.90;;;;;;5028789;28;20072;-73
2022/12/07 07:08:46;;;;;;;33.47;20.45;;;10.10;99.90;;;;;;5021817;28;20385;-73
2022/12/07 07:11:51;;;;;;;31.30;18.30;;;10.20;99.90;;;;;;5029773;28;20048;-73
2022/12/07 07:14:55;;;;;;;27.52;18.63;;;10.20;99.90;;;;;;5028403;28;20041;-73
2022/12/07 07:17:59;;;;;;;32.80;19.85;;;10.20;99.90;;;;;;5012115;28;20045;-73
2022/12/07 07:21:04;;;;;;;29.42;17.92;;;10.30;99.90;;;;;;5029643;28;20044;-73
2022/12/07 07:24:09;;;;;;;36.10;24.45;;;10.40;99.90;;;;;;5033636;28;20041;-73
2022/12/07 07:27:14;;;;;;;40.88;26.08;;;10.40;99.90;;;;;;5030606;28;20033;-73
2022/12/07 07:30:19;;;;;;;48.80;29.77;;;10.40;99.90;;;;;;5036341;28;20044;-73
2022/12/07 07:33:24;;;;;;;265.05;33.58;;;10.40;99.90;;;;;;5028496;28;20061;-72
2022/12/07 07:36:28;;;;;;;244.38;33.80;;;10.40;99.90;;;;;;5029782;28;20036;-73
2022/12/07 07:39:33;;;;;;;198.45;30.50;;;10.40;99.90;;;;;;5028629;28;20052;-73
2022/12/07 07:42:37;;;;;;;66.35;24.88;;;10.50;99.90;;;;;;5032582;28;20065;-73
2022/12/07 07:45:42;;;;;;;76.07;28.13;;;10.50;99.90;;;;;;5032504;28;20061;-73
2022/12/07 07:48:48;;;;;;;45.00;25.58;;;10.60;99.90;;;;;;5027700;28;20057;-73
2022/12/07 07:51:52;;;;;;;157.50;33.30;;;10.70;99.90;;;;;;5019097;28;20389;-73
2022/12/07 07:54:56;;;;;;;164.57;32.40;;;10.80;99.90;;;;;;5033925;28;20091;-73
2022/12/07 07:58:00;;;;;;;93.85;25.77;;;10.60;99.90;;;;;;5031023;28;20048;-73
2022/12/07 08:01:06;;;;;;;45.17;22.42;;;10.70;99.90;;;;;;5029369;28;20052;-73
2022/12/07 08:04:12;;;;;;;314.83;32.15;;;10.80;99.90;;;;;;5027088;28;20402;-73
2022/12/07 08:07:16;;;;;;;533.45;45.15;;;10.80;99.90;;;;;;5052471;28;20045;-73
2022/12/07 08:10:20;;;;;;;1040.05;73.82;;;10.70;99.90;;;;;;5029870;28;20117;-72
2022/12/07 08:13:24;;;;;;;826.92;66.93;;;10.60;99.90;;;;;;5026870;28;20045;-73
2022/12/07 08:16:29;;;;;;;34.10;21.08;;;10.50;99.90;;;;;;5032075;28;20044;-73
2022/12/07 08:19:34;;;;;;;212.98;29.75;;;10.80;99.90;;;;;;5026141;28;20036;-73
2022/12/07 08:22:38;;;;;;;110.30;25.15;;;11.00;99.90;;;;;;5025312;28;20064;-73
2022/12/07 08:25:43;;;;;;;46.90;20.20;;;11.30;99.90;;;;;;5029952;28;20053;-73
2022/12/07 08:28:48;;;;;;;83.28;22.30;;;11.50;99.90;;;;;;5020131;28;20045;-73
2022/12/07 08:31:52;;;;;;;243.75;27.65;;;11.70;99.90;;;;;;5031363;28;20052;-73
2022/12/07 08:34:56;;;;;;;75.03;23.83;;;11.50;99.90;;;;;;5030746;28;20056;-73
2022/12/07 08:38:02;;;;;;;29.70;18.85;;;11.30;99.90;;;;;;5027504;28;20527;-72
2022/12/07 08:41:07;;;;;;;96.00;23.98;;;11.50;99.90;;;;;;5031514;28;20511;-73
2022/12/07 08:44:11;;;;;;;176.60;24.95;;;11.70;99.90;;;;;;5031932;28;20064;-73
2022/12/07 08:47:15;;;;;;;29.60;19.65;;;11.80;99.90;;;;;;5032329;28;20048;-73
2022/12/07 08:50:21;;;;;;;52.50;22.08;;;12.00;99.90;;;;;;5029276;28;20053;-73
2022/12/07 08:53:27;;;;;;;109.03;23.30;;;12.20;99.90;;;;;;5043712;28;20116;-73
2022/12/07 08:56:33;;;;;;;39.03;21.10;;;12.20;99.90;;;;;;5025850;28;20495;-73
2022/12/07 08:59:37;;;;;;;136.25;24.95;;;12.20;99.90;;;;;;5030332;28;20040;-73
2022/12/07 09:02:42;;;;;;;67.82;22.58;;;12.00;99.90;;;;;;5032001;28;20049;-73
2022/12/07 09:05:47;;;;;;;37.65;21.10;;;11.90;99.90;;;;;;5029415;28;20376;-73
2022/12/07 09:08:58;;;;;;;34.58;20.70;;;11.90;99.90;;;;;;5027821;28;20041;-72
2022/12/07 09:12:02;;;;;;;26.52;16.27;;;12.20;99.90;;;;;;5030740;28;20049;-72
2022/12/07 09:15:08;;;;;;;36.80;15.77;;;12.60;99.90;;;;;;5029986;28;20044;-72
2022/12/07 09:18:12;;;;;;;23.70;11.93;;;13.10;99.90;;;;;;5028911;28;20072;-72
2022/12/07 09:21:16;;;;;;;19.98;11.13;;;13.30;99.90;;;;;;5029879;28;20048;-73
2022/12/07 09:24:20;;;;;;;26.58;14.80;;;13.40;99.90;;;;;;5029322;28;20049;-73
2022/12/07 09:27:25;;;;;;;27.58;12.45;;;13.30;99.90;;;;;;5027564;28;20045;-72
2022/12/07 09:30:29;;;;;;;28.55;14.20;;;13.20;99.90;;;;;;5022265;28;20103;-73
2022/12/07 09:33:33;;;;;;;25.45;14.20;;;13.20;99.90;;;;;;5021843;28;20048;-73
2022/12/07 09:36:37;;;;;;;23.42;11.07;;;13.40;99.90;;;;;;5028834;28;20056;-72
2022/12/07 09:39:41;;;;;;;23.38;10.88;;;13.90;99.90;;;;;;5030751;28;20064;-73
2022/12/07 09:42:51;;;;;;;34.97;11.15;;;13.90;99.90;;;;;;5023740;28;20044;-72
2022/12/07 09:45:56;;;;;;;20.48;9.65;;;14.30;99.90;;;;;;5036771;28;20044;-72
2022/12/07 09:49:00;;;;;;;20.45;9.48;;;14.60;99.90;;;;;;5030322;28;20045;-73
2022/12/07 09:52:08;;;;;;;20.13;8.38;;;15.00;99.90;;;;;;5023486;28;20404;-73
2022/12/07 09:55:16;;;;;;;23.33;8.02;;;15.40;99.90;;;;;;5029531;28;20048;-73
2022/12/07 09:58:25;;;;;;;19.42;8.23;;;16.40;99.90;;;;;;5030714;28;20507;-73
2022/12/07 10:01:33;;;;;;;24.20;9.02;;;16.90;99.90;;;;;;5023656;28;20048;-73
2022/12/07 10:04:38;;;;;;;17.85;9.35;;;17.10;99.90;;;;;;5029390;28;20057;-73
2022/12/07 10:07:42;;;;;;;14.95;7.85;;;17.60;99.90;;;;;;5032457;28;20039;-73
2022/12/07 10:10:52;;;;;;;22.20;9.90;;;17.70;99.90;;;;;;5024524;28;20048;-73
2022/12/07 10:14:12;;;;;;;16.90;8.43;;;17.60;99.90;;;;;;5027853;28;20381;-73
2022/12/07 10:17:36;;;;;;;18.83;8.20;;;17.90;99.90;;;;;;5025819;28;20029;-73
2022/12/07 10:20:40;;;;;;;16.30;7.35;;;19.00;99.90;;;;;;5028842;28;20261;-73
2022/12/07 10:24:10;;;;;;;17.67;9.48;;;19.40;99.90;;;;;;5027769;28;20048;-73
2022/12/07 10:27:43;;;;;;;17.88;9.75;;;19.50;99.90;;;;;;5029696;28;20040;-73
2022/12/07 10:30:53;;;;;;;15.52;8.30;;;19.00;99.90;;;;;;5028372;28;20503;-73
2022/12/07 10:33:59;;;;;;;18.65;7.55;;;19.20;99.90;;;;;;5027375;28;20040;-73
2022/12/07 10:37:12;;;;;;;19.30;6.70;;;19.20;99.90;;;;;;5028562;28;20040;-73
2022/12/07 10:40:33;;;;;;;24.20;11.38;;;19.10;99.90;;;;;;5028151;28;20384;-73
2022/12/07 10:43:47;;;;;;;23.42;13.43;;;17.70;99.90;;;;;;5015317;28;20044;-73
2022/12/07 10:47:03;;;;;;;24.73;11.90;;;16.90;99.90;;;;;;5022364;28;20045;-73
2022/12/07 10:50:10;;;;;;;26.23;13.07;;;17.30;99.90;;;;;;5032505;28;20052;-73
2022/12/07 10:53:25;;;;;;;21.77;12.40;;;18.10;99.90;;;;;;5027617;28;20048;-73
2022/12/07 10:56:52;;;;;;;19.52;10.30;;;18.30;99.90;;;;;;5031232;28;20044;-73
2022/12/07 11:00:13;;;;;;;23.08;12.88;;;18.10;99.90;;;;;;5033069;28;20396;-71
2022/12/07 11:03:41;;;;;;;27.60;11.43;;;18.40;99.90;;;;;;5032241;28;20392;-73
2022/12/07 11:06:57;;;;;;;16.50;9.10;;;18.30;99.90;;;;;;5027358;28;20113;-73
2022/12/07 11:10:08;;;;;;;15.70;8.02;;;18.80;99.90;;;;;;5032345;28;20041;-73
2022/12/07 11:14:12;;;;;;;17.33;8.52;;;19.50;99.90;;;;;;5032732;28;20388;-72
2022/12/07 11:17:31;;;;;;;15.95;8.93;;;18.90;99.90;;;;;;5031702;28;20052;-73
2022/12/07 11:20:59;;;;;;;17.17;8.57;;;18.10;99.90;;;;;;5033513;28;20052;-73
2022/12/07 11:24:06;;;;;;;18.60;8.57;;;17.70;99.90;;;;;;5032751;28;20088;-72
2022/12/07 11:27:46;;;;;;;16.52;8.75;;;17.40;99.90;;;;;;5051586;28;20044;-72
2022/12/07 11:31:06;;;;;;;18.02;9.52;;;16.90;99.90;;;;;;5032856;28;20037;-72
2022/12/07 11:34:46;;;;;;;18.73;9.18;;;16.80;99.90;;;;;;5031817;28;20503;-72
2022/12/07 11:37:58;;;;;;;24.58;10.40;;;16.70;99.90;;;;;;5030375;28;20060;-72
2022/12/07 11:41:14;;;;;;;19.73;9.20;;;17.10;99.90;;;;;;5033491;28;20047;-73
2022/12/07 11:44:53;;;;;;;13.90;6.63;;;18.10;99.90;;;;;;5032994;28;20045;-73
2022/12/07 11:48:11;;;;;;;15.70;5.95;;;19.60;99.90;;;;;;5044598;28;20036;-73
2022/12/07 11:51:20;;;;;;;13.38;5.88;;;19.90;99.90;;;;;;5032114;28;20064;-73
2022/12/07 11:54:35;;;;;;;13.10;4.22;;;19.80;99.90;;;;;;5032574;28;20040;-73
2022/12/07 11:57:45;;;;;;;16.42;5.53;;;19.90;99.90;;;;;;5030027;28;20036;-73
2022/12/07 12:00:54;;;;;;;8.57;4.05;;;20.00;99.90;;;;;;5046041;28;20064;-73
2022/12/07 12:04:10;;;;;;;13.02;4.63;;;20.20;99.90;;;;;;5030886;28;20045;-73
2022/12/07 12:07:22;;;;;;;8.07;3.30;;;23.20;99.90;;;;;;5026519;28;20041;-74
2022/12/07 12:10:49;;;;;;;;;;;25.70;99.90;;;;;;5032128;28;20041;-73
2022/12/07 12:14:14;;;;;;;5.40;2.33;;;26.80;99.90;;;;;;5024239;28;19917;-74
2022/12/07 12:18:03;;;;;;;9.98;3.38;;;25.70;99.90;;;;;;5036190;28;20048;-74
2022/12/07 12:21:16;;;;;;;8.68;1.80;;;25.60;99.90;;;;;;5017074;28;20826;-74
2022/12/07 12:24:25;;;;;;;4.07;1.70;;;27.90;99.90;;;;;;5043173;28;20040;-74
2022/12/07 12:27:35;;;;;;;5.75;2.67;;;28.90;97.30;;;;;;5030986;28;20499;-74
2022/12/07 12:30:40;;;;;;;6.43;2.10;;;27.50;97.70;;;;;;5036337;28;20044;-74
2022/12/07 12:33:54;;;;;;;7.10;2.35;;;25.60;98.70;;;;;;5026585;28;20040;-73
2022/12/07 12:36:59;;;;;;;7.22;1.90;;;24.50;99.90;;;;;;5023109;28;20036;-73
2022/12/07 12:40:32;;;;;;;9.38;2.30;;;23.80;99.90;;;;;;5033659;28;20052;-73
2022/12/07 12:43:43;;;;;;;6.22;2.67;;;22.40;99.90;;;;;;5028864;28;20044;-73
2022/12/07 12:47:06;;;;;;;6.93;2.65;;;21.40;99.90;;;;;;5029865;28;20048;-73
2022/12/07 12:50:24;;;;;;;9.98;2.70;;;20.50;99.90;;;;;;5052645;28;20040;-73
2022/12/07 12:53:29;;;;;;;5.63;2.95;;;20.60;99.90;;;;;;5016472;28;20060;-73
2022/12/07 12:56:43;;;;;;;4.53;2.25;;;20.10;99.90;;;;;;5027964;28;20045;-73
2022/12/07 12:59:53;;;;;;;9.88;2.72;;;18.70;99.90;;;;;;5036075;28;20060;-73
2022/12/07 13:02:59;;;;;;;12.80;3.28;;;18.40;99.90;;;;;;5027162;28;20052;-73
2022/12/07 13:06:42;;;;;;;9.30;3.28;;;17.90;99.90;;;;;;5027516;28;20045;-73
2022/12/07 13:09:47;;;;;;;6.82;2.95;;;17.10;99.90;;;;;;4989331;28;20041;-72
2022/12/07 13:13:15;;;;;;;6.07;2.65;;;17.00;99.90;;;;;;4987113;28;20042;-73
2022/12/07 13:16:23;;;;;;;8.88;2.95;;;16.90;99.90;;;;;;5029698;28;20656;-73
2022/12/07 13:19:43;;;;;;;9.07;3.05;;;16.40;99.90;;;;;;5037559;28;20132;-72
2022/12/07 13:22:49;;;;;;;9.52;2.97;;;15.90;99.90;;;;;;5027055;28;20048;-72
2022/12/07 13:26:13;;;;;;;5.80;2.67;;;16.60;99.90;;;;;;5030096;28;20044;-73
2022/12/07 13:29:21;;;;;;;6.82;2.90;;;17.60;99.90;;;;;;5028288;28;20048;-73
2022/12/07 13:32:29;;;;;;;5.25;2.72;;;18.60;99.90;;;;;;5031052;28;20494;-73
2022/12/07 13:35:39;;;;;;;5.35;2.60;;;18.10;99.90;;;;;;5031758;28;20065;-73
2022/12/07 13:38:53;;;;;;;5.28;2.10;;;20.30;99.90;;;;;;5031042;28;20044;-74
2022/12/07 13:41:59;;;;;;;11.70;2.70;;;22.30;99.90;;;;;;5031247;28;20515;-73
2022/12/07 13:45:48;;;;;;;8.55;2.45;;;22.70;99.90;;;;;;5032682;28;20037;-73
2022/12/07 13:48:52;;;;;;;6.15;2.20;;;22.20;99.90;;;;;;5030161;28;20045;-73
2022/12/07 13:52:18;;;;;;;7.90;2.08;;;21.90;99.90;;;;;;5030251;28;20033;-73
2022/12/07 13:55:23;;;;;;;5.43;2.08;;;22.20;99.90;;;;;;5039586;28;20048;-73
2022/12/07 13:58:31;;;;;;;8.63;2.15;;;23.80;99.90;;;;;;5027421;28;20385;-73
2022/12/07 14:01:35;;;;;;;5.00;2.22;;;23.30;99.90;;;;;;5028055;28;20048;-73
2022/12/07 14:04:39;;;;;;;6.78;2.50;;;21.50;99.90;;;;;;5027994;28;20041;-73
2022/12/07 14:08:00;;;;;;;6.93;2.08;;;22.10;99.90;;;;;;5025772;28;20049;-73
2022/12/07 14:11:04;;;;;;;7.55;2.08;;;22.20;99.90;;;;;;5038131;28;20056;-74
2022/12/07 14:14:16;;;;;;;5.72;1.88;;;21.70;99.90;;;;;;5024799;28;20065;-73
2022/12/07 14:17:24;;;;;;;4.00;2.00;;;21.90;99.90;;;;;;5033959;28;20051;-72
2022/12/07 14:20:34;;;;;;;3.83;1.75;;;22.10;99.90;;;;;;5038367;28;20329;-73
2022/12/07 14:23:40;;;;;;;5.03;1.98;;;22.30;99.90;;;;;;5039065;28;20048;-73
2022/12/07 14:26:46;;;;;;;5.25;2.28;;;22.50;99.90;;;;;;5043980;28;20040;-72
2022/12/07 14:29:49;;;;;;;5.28;1.85;;;21.50;99.90;;;;;;5025454;28;20045;-72
2022/12/07 14:33:00;;;;;;;5.03;1.88;;;20.40;99.90;;;;;;5029548;28;20044;-72
2022/12/07 14:36:04;;;;;;;6.77;1.90;;;19.70;99.90;;;;;;5034121;28;20056;-72
2022/12/07 14:39:08;;;;;;;6.88;2.30;;;19.00;99.90;;;;;;5047188;28;20064;-72
2022/12/07 14:42:12;;;;;;;6.97;2.00;;;18.30;99.90;;;;;;5037501;28;20044;-72
2022/12/07 14:45:21;;;;;;;4.80;2.10;;;17.80;99.90;;;;;;5036390;28;20041;-72
2022/12/07 14:48:25;;;;;;;4.75;2.15;;;17.60;99.90;;;;;;5028087;28;20037;-73
2022/12/07 14:51:29;;;;;;;6.47;2.47;;;17.40;99.90;;;;;;5033676;28;20067;-72
2022/12/07 14:54:34;;;;;;;5.85;2.50;;;17.40;99.90;;;;;;5025602;28;20534;-72
2022/12/07 14:57:38;;;;;;;6.72;2.40;;;17.00;99.90;;;;;;5033576;28;20049;-72
2022/12/07 15:00:43;;;;;;;7.72;2.53;;;16.60;99.90;;;;;;5030557;28;20052;-72
2022/12/07 15:03:47;;;;;;;6.93;2.90;;;16.10;99.90;;;;;;5033230;28;20045;-72
2022/12/07 15:07:01;;;;;;;7.40;3.03;;;15.70;99.90;;;;;;5029899;28;20048;-72
2022/12/07 15:10:06;;;;;;;4.38;2.90;;;15.30;99.90;;;;;;5038597;28;20387;-72
2022/12/07 15:16:33;;;;;;;8.07;3.13;;;14.80;99.90;;;;;;5037656;28;20052;-72
2022/12/07 15:19:37;;;;;;;7.68;3.38;;;14.80;99.90;;;;;;5029804;28;20053;-72
2022/12/07 15:22:42;;;;;;;8.82;4.28;;;15.00;99.90;;;;;;5037714;28;20051;-72
2022/12/07 15:25:48;;;;;;;11.43;4.55;;;15.20;99.90;;;;;;5025511;28;20044;-72
2022/12/07 15:28:53;;;;;;;13.25;4.38;;;15.30;99.90;;;;;;5029652;28;20052;-72
2022/12/07 15:31:58;;;;;;;18.23;5.90;;;15.00;99.90;;;;;;5029392;28;20055;-71
2022/12/07 15:35:03;;;;;;;13.65;5.88;;;14.60;99.90;;;;;;5037797;28;20044;-72
2022/12/07 15:38:07;;;;;;;13.80;5.35;;;14.20;99.90;;;;;;5032308;28;20040;-71
2022/12/07 15:41:12;;;;;;;15.82;5.97;;;13.90;99.90;;;;;;5028531;28;20049;-72
2022/12/07 15:47:47;;;;;;;12.77;5.40;;;13.40;99.90;;;;;;5033597;28;20048;-72
2022/12/07 15:50:51;;;;;;;8.02;5.13;;;13.20;99.90;;;;;;5032603;28;20040;-72
2022/12/07 15:53:56;;;;;;;12.27;5.00;;;13.10;99.90;;;;;;5027321;28;20040;-72
2022/12/07 15:57:01;;;;;;;14.55;5.35;;;13.00;99.90;;;;;;5049029;28;20052;-72
2022/12/07 16:00:08;;;;;;;10.32;4.72;;;12.80;99.90;;;;;;5034559;28;20045;-71
2022/12/07 16:03:13;;;;;;;11.35;5.35;;;12.70;99.90;;;;;;5038115;28;20048;-72
2022/12/07 16:06:19;;;;;;;13.93;6.68;;;12.70;99.90;;;;;;5032982;28;20044;-71
2022/12/07 16:09:24;;;;;;;18.85;14.10;;;12.50;99.90;;;;;;5031697;28;20048;-71
2022/12/07 16:12:29;;;;;;;25.92;16.00;;;12.50;99.90;;;;;;5036189;28;20049;-71
2022/12/07 16:15:37;;;;;;;30.52;18.08;;;12.50;99.90;;;;;;5036593;28;20051;-71
2022/12/07 16:18:43;;;;;;;30.98;19.23;;;12.40;99.90;;;;;;5055253;28;20037;-71
2022/12/07 16:21:47;;;;;;;23.42;17.13;;;12.30;99.90;;;;;;5032724;28;20040;-71
2022/12/07 16:24:51;;;;;;;24.58;17.15;;;12.30;99.90;;;;;;5038297;28;20051;-71
2022/12/07 16:27:55;;;;;;;20.95;14.80;;;12.10;99.90;;;;;;5048414;28;20044;-71